Time;durP1;ratioP1;P1;durP2;ratioP2;P2;SDS_P1;SDS_P2;PMS_P1;PMS_P2;Temp;Humidity;BMP_temperature;BMP_pressure;BME280_temperature;BME280_humidity;BME280_pressure;Samples;Min_cycle;Max_cycle;Signal;HPM_P1;HPM_P2
2023/05/04 00:00:07;;;;;;;;;1.00;1.00;;;;;;;;5036370;28;45168;-77
2023/05/04 00:02:33;;;;;;;;;3.50;1.00;;;;;;;;5035939;28;45279;-77
2023/05/04 00:04:58;;;;;;;;;0.50;0.50;;;;;;;;5036088;28;45582;-78
2023/05/04 00:07:23;;;;;;;;;2.00;2.00;;;;;;;;5036144;28;45569;-77
2023/05/04 00:09:49;;;;;;;;;2.67;1.00;;;;;;;;5035651;28;45310;-78
2023/05/04 00:12:14;;;;;;;;;3.00;2.00;;;;;;;;5035807;28;45500;-78
2023/05/04 00:14:40;;;;;;;;;2.75;1.00;;;;;;;;5035763;28;45456;-78
2023/05/04 00:17:06;;;;;;;;;1.67;1.00;;;;;;;;5035756;28;45441;-78
2023/05/04 00:19:33;;;;;;;;;1.50;1.00;;;;;;;;5035847;28;45333;-78
2023/05/04 00:21:58;;;;;;;;;1.00;1.00;;;;;;;;5035742;28;45473;-77
2023/05/04 00:24:23;;;;;;;;;1.33;1.00;;;;;;;;5035432;28;46420;-77
2023/05/04 00:26:49;;;;;;;;;3.33;1.67;;;;;;;;5035797;28;45429;-77
2023/05/04 00:29:14;;;;;;;;;1.67;1.67;;;;;;;;5035843;28;45472;-78
2023/05/04 00:31:39;;;;;;;;;2.00;2.00;;;;;;;;5035603;28;45295;-77
2023/05/04 00:34:04;;;;;;;;;2.67;1.00;;;;;;;;5035458;28;46495;-78
2023/05/04 00:36:30;;;;;;;;;4.33;1.00;;;;;;;;5035547;28;45480;-77
2023/05/04 00:38:55;;;;;;;;;2.67;1.00;;;;;;;;5035205;28;45471;-77
2023/05/04 00:41:20;;;;;;;;;2.67;1.00;;;;;;;;5035547;28;45495;-78
2023/05/04 00:43:46;;;;;;;;;2.00;1.00;;;;;;;;5035336;28;45395;-78
2023/05/04 00:46:11;;;;;;;;;2.75;2.75;;;;;;;;5035431;28;45412;-77
2023/05/04 00:48:37;;;;;;;;;1.00;1.00;;;;;;;;5035701;28;45288;-77
2023/05/04 00:51:03;;;;;;;;;1.00;1.00;;;;;;;;5035442;28;45537;-77
2023/05/04 00:53:29;;;;;;;;;1.25;1.00;;;;;;;;5035578;28;47993;-77
2023/05/04 00:55:54;;;;;;;;;2.75;1.50;;;;;;;;5038895;28;45392;-77
2023/05/04 00:58:19;;;;;;;;;1.00;0.00;;;;;;;;5039015;28;45397;-78
2023/05/04 01:00:45;;;;;;;;;1.50;1.00;;;;;;;;5039123;28;45445;-77
2023/05/04 01:03:10;;;;;;;;;4.00;1.00;;;;;;;;5038960;28;46482;-77
2023/05/04 01:05:41;;;;;;;;;1.00;1.00;;;;;;;;5038893;28;45289;-78
2023/05/04 01:08:13;;;;;;;;;1.50;1.50;;;;;;;;5038460;28;45409;-78
2023/05/04 01:10:43;;;;;;;;;1.50;1.50;;;;;;;;5038879;28;45510;-77
2023/05/04 01:13:13;;;;;;;;;2.00;2.00;;;;;;;;5038274;28;46304;-77
2023/05/04 01:15:39;;;;;;;;;2.25;1.00;;;;;;;;5038544;28;45612;-78
2023/05/04 01:18:04;;;;;;;;;5.00;1.00;;;;;;;;5038689;28;45219;-78
2023/05/04 01:20:29;;;;;;;;;2.00;1.00;;;;;;;;5038781;28;45449;-78
2023/05/04 01:22:55;;;;;;;;;2.00;2.00;;;;;;;;5038128;28;46138;-78
2023/05/04 01:25:20;;;;;;;;;1.50;1.50;;;;;;;;5038724;28;45306;-77
2023/05/04 01:27:48;;;;;;;;;2.67;2.00;;;;;;;;5038488;28;45341;-77
2023/05/04 01:30:17;;;;;;;;;1.00;0.50;;;;;;;;5038481;28;45578;-78
2023/05/04 01:32:44;;;;;;;;;1.25;1.25;;;;;;;;5038392;28;46986;-78
2023/05/04 01:35:11;;;;;;;;;2.25;2.00;;;;;;;;5038327;28;45432;-78
2023/05/04 01:37:36;;;;;;;;;3.25;1.75;;;;;;;;5037857;28;45409;-78
2023/05/04 01:40:03;;;;;;;;;2.00;2.00;;;;;;;;5038285;28;45247;-78
2023/05/04 01:42:28;;;;;;;;;1.00;1.00;;;;;;;;5038116;28;46399;-78
2023/05/04 01:44:53;;;;;;;;;2.00;2.00;;;;;;;;5038375;28;45505;-77
2023/05/04 01:47:18;;;;;;;;;2.00;2.00;;;;;;;;5038560;28;45370;-78
2023/05/04 01:49:43;;;;;;;;;2.33;2.33;;;;;;;;5038332;28;45555;-78
2023/05/04 01:52:09;;;;;;;;;1.00;1.00;;;;;;;;5037639;28;45511;-78
2023/05/04 01:54:34;;;;;;;;;2.00;2.00;;;;;;;;5037948;28;45396;-77
2023/05/04 01:57:01;;;;;;;;;5.00;2.00;;;;;;;;5038232;28;45273;-77
2023/05/04 01:59:26;;;;;;;;;2.75;2.00;;;;;;;;5038064;28;45299;-78
2023/05/04 02:01:51;;;;;;;;;2.00;1.00;;;;;;;;5037928;28;46301;-78
2023/05/04 02:04:16;;;;;;;;;2.00;2.00;;;;;;;;5037501;28;45277;-78
2023/05/04 02:06:41;;;;;;;;;2.00;1.33;;;;;;;;5019855;28;45361;-78
2023/05/04 02:09:06;;;;;;;;;2.00;1.00;;;;;;;;5020011;28;45472;-77
2023/05/04 02:11:32;;;;;;;;;2.67;0.00;;;;;;;;5019785;28;48393;-78
2023/05/04 02:13:57;;;;;;;;;3.75;1.00;;;;;;;;5037758;28;45404;-77
2023/05/04 02:16:22;;;;;;;;;2.00;2.00;;;;;;;;5037642;28;45305;-77
2023/05/04 02:18:48;;;;;;;;;1.67;1.67;;;;;;;;5037962;28;45414;-78
2023/05/04 02:21:13;;;;;;;;;4.00;3.00;;;;;;;;5037277;28;46254;-78
2023/05/04 02:23:38;;;;;;;;;1.33;1.33;;;;;;;;5037604;28;45333;-78
2023/05/04 02:26:03;;;;;;;;;2.33;1.67;;;;;;;;5037834;28;45380;-79
2023/05/04 02:28:28;;;;;;;;;3.00;2.67;;;;;;;;5037722;28;45458;-79
2023/05/04 02:30:54;;;;;;;;;3.33;2.00;;;;;;;;5037359;28;46217;-79
2023/05/04 02:33:19;;;;;;;;;6.00;1.00;;;;;;;;5037587;28;45417;-79
2023/05/04 02:35:44;;;;;;;;;2.25;2.25;;;;;;;;5037034;28;45301;-78
2023/05/04 02:38:09;;;;;;;;;1.00;1.00;;;;;;;;5037411;28;45438;-79
2023/05/04 02:40:35;;;;;;;;;2.00;2.00;;;;;;;;5037232;28;45460;-79
2023/05/04 02:43:00;;;;;;;;;2.00;2.00;;;;;;;;5037337;28;45229;-79
2023/05/04 02:45:25;;;;;;;;;2.50;2.00;;;;;;;;5037439;28;45370;-79
2023/05/04 02:47:50;;;;;;;;;1.33;1.00;;;;;;;;5037462;28;45257;-78
2023/05/04 02:50:15;;;;;;;;;2.00;2.00;;;;;;;;5036984;28;47298;-79
2023/05/04 02:52:41;;;;;;;;;4.00;3.00;;;;;;;;5037274;28;45421;-78
2023/05/04 02:55:06;;;;;;;;;3.33;3.33;;;;;;;;5037201;28;45284;-78
2023/05/04 02:57:31;;;;;;;;;2.75;1.00;;;;;;;;5037191;28;45494;-78
2023/05/04 02:59:56;;;;;;;;;2.00;1.00;;;;;;;;5037022;28;46298;-77
2023/05/04 03:02:22;;;;;;;;;2.00;2.00;;;;;;;;5037058;28;45274;-77
2023/05/04 03:04:47;;;;;;;;;6.00;2.00;;;;;;;;5036872;28;45340;-77
2023/05/04 03:07:12;;;;;;;;;5.00;2.00;;;;;;;;5037204;28;45378;-77
2023/05/04 03:09:37;;;;;;;;;5.00;1.33;;;;;;;;5036867;28;45222;-77
2023/05/04 03:12:03;;;;;;;;;3.75;2.25;;;;;;;;5036649;28;45527;-77
2023/05/04 03:14:28;;;;;;;;;2.25;2.25;;;;;;;;5036830;28;45263;-77
2023/05/04 03:16:53;;;;;;;;;4.00;2.00;;;;;;;;5036109;28;45449;-77
2023/05/04 03:19:20;;;;;;;;;0.00;0.00;;;;;;;;5036496;28;45742;-77
2023/05/04 03:21:46;;;;;;;;;4.25;2.00;;;;;;;;5036759;28;45476;-78
2023/05/04 03:24:11;;;;;;;;;3.00;1.00;;;;;;;;5036951;28;45385;-77
2023/05/04 03:26:36;;;;;;;;;3.33;3.00;;;;;;;;5036757;28;45579;-77
2023/05/04 03:29:01;;;;;;;;;4.00;2.33;;;;;;;;5036431;28;45478;-77
2023/05/04 03:31:26;;;;;;;;;3.33;2.00;;;;;;;;5036670;28;45449;-78
2023/05/04 03:33:52;;;;;;;;;3.00;3.00;;;;;;;;5036372;28;45442;-77
2023/05/04 03:36:17;;;;;;;;;5.00;4.00;;;;;;;;5036620;28;45324;-78
2023/05/04 03:38:42;;;;;;;;;2.00;2.00;;;;;;;;5036257;28;46049;-77
2023/05/04 03:41:08;;;;;;;;;4.00;1.67;;;;;;;;5036257;28;45447;-77
2023/05/04 03:43:33;;;;;;;;;2.00;2.00;;;;;;;;5036713;28;45416;-77
2023/05/04 03:45:58;;;;;;;;;4.00;2.33;;;;;;;;5036533;28;45403;-78
2023/05/04 03:48:23;;;;;;;;;5.00;3.00;;;;;;;;5035727;28;45351;-77
2023/05/04 03:50:48;;;;;;;;;4.00;2.00;;;;;;;;5036342;28;45467;-78
2023/05/04 03:53:13;;;;;;;;;2.67;2.67;;;;;;;;5035954;28;45533;-79
2023/05/04 03:55:39;;;;;;;;;2.00;2.00;;;;;;;;5018431;28;45576;-78
2023/05/04 03:58:04;;;;;;;;;3.33;3.00;;;;;;;;5036130;28;46433;-78
2023/05/04 04:00:29;;;;;;;;;4.75;2.50;;;;;;;;5035848;28;45345;-77
2023/05/04 04:02:55;;;;;;;;;7.00;3.00;;;;;;;;5035926;28;45321;-77
2023/05/04 04:05:20;;;;;;;;;2.00;2.00;;;;;;;;5036124;28;45316;-77
2023/05/04 04:07:45;;;;;;;;;4.75;2.75;;;;;;;;5036044;28;45526;-79
2023/05/04 04:10:10;;;;;;;;;4.00;4.00;;;;;;;;5035965;28;45496;-77
2023/05/04 04:12:35;;;;;;;;;4.00;3.00;;;;;;;;5036007;28;45499;-77
2023/05/04 04:15:01;;;;;;;;;6.33;2.67;;;;;;;;5035959;28;45235;-77
2023/05/04 04:17:26;;;;;;;;;2.67;2.33;;;;;;;;5035544;28;46779;-77
2023/05/04 04:19:51;;;;;;;;;4.33;2.00;;;;;;;;5035810;28;45249;-77
2023/05/04 04:22:16;;;;;;;;;4.50;2.00;;;;;;;;5035868;28;45400;-77
2023/05/04 04:24:42;;;;;;;;;4.00;4.00;;;;;;;;5036017;28;45365;-77
2023/05/04 04:27:07;;;;;;;;;8.00;4.67;;;;;;;;5035515;28;45368;-78
2023/05/04 04:29:34;;;;;;;;;3.33;3.33;;;;;;;;5035784;28;45386;-78
2023/05/04 04:31:59;;;;;;;;;4.75;2.75;;;;;;;;5035578;28;45496;-78
2023/05/04 04:34:24;;;;;;;;;7.33;4.00;;;;;;;;5035689;28;45498;-78
2023/05/04 04:36:50;;;;;;;;;3.25;3.00;;;;;;;;5035693;28;46041;-78
2023/05/04 04:39:15;;;;;;;;;5.50;2.75;;;;;;;;5035430;28;45304;-77
2023/05/04 04:41:41;;;;;;;;;4.50;3.00;;;;;;;;5035831;28;45330;-78
2023/05/04 04:44:06;;;;;;;;;9.00;4.25;;;;;;;;5035744;28;45385;-78
2023/05/04 04:46:32;;;;;;;;;3.25;2.75;;;;;;;;5035435;28;45274;-78
2023/05/04 04:48:57;;;;;;;;;7.75;3.50;;;;;;;;5035642;28;45348;-78
2023/05/04 04:51:23;;;;;;;;;3.00;3.00;;;;;;;;5035708;28;45380;-78
2023/05/04 04:53:50;;;;;;;;;4.33;3.67;;;;;;;;5035666;28;45433;-78
2023/05/04 04:56:17;;;;;;;;;5.50;3.00;;;;;;;;5035278;28;45466;-78
2023/05/04 04:58:42;;;;;;;;;5.25;3.00;;;;;;;;5035496;28;45783;-78
2023/05/04 05:01:07;;;;;;;;;3.75;2.75;;;;;;;;5035199;28;45238;-79
2023/05/04 05:03:33;;;;;;;;;5.50;3.00;;;;;;;;5035649;28;45454;-77
2023/05/04 05:06:00;;;;;;;;;8.33;4.00;;;;;;;;5035343;28;45374;-78
2023/05/04 05:08:25;;;;;;;;;4.75;3.00;;;;;;;;5035405;28;45980;-78
2023/05/04 05:10:51;;;;;;;;;5.00;2.00;;;;;;;;5035413;28;45363;-77
2023/05/04 05:13:16;;;;;;;;;7.00;3.75;;;;;;;;5035246;28;45392;-77
2023/05/04 05:15:41;;;;;;;;;4.00;4.00;;;;;;;;5034743;28;45482;-77
2023/05/04 05:18:06;;;;;;;;;7.25;5.00;;;;;;;;5035120;28;45389;-77
2023/05/04 05:20:33;;;;;;;;;5.00;3.67;;;;;;;;5035455;28;45392;-77
2023/05/04 05:22:58;;;;;;;;;5.50;3.75;;;;;;;;5035388;28;45462;-77
2023/05/04 05:25:23;;;;;;;;;3.75;2.00;;;;;;;;5035068;28;46086;-77
2023/05/04 05:27:48;;;;;;;;;10.33;3.33;;;;;;;;5035213;28;45409;-77
2023/05/04 05:30:14;;;;;;;;;5.33;4.00;;;;;;;;5034967;28;45531;-78
2023/05/04 05:32:39;;;;;;;;;6.75;4.25;;;;;;;;5035101;28;45445;-77
2023/05/04 05:35:05;;;;;;;;;4.00;3.00;;;;;;;;5034862;28;47026;-78
2023/05/04 05:37:31;;;;;;;;;3.75;3.50;;;;;;;;5034743;28;45262;-78
2023/05/04 05:39:56;;;;;;;;;3.75;2.00;;;;;;;;5036208;28;45427;-77
2023/05/04 05:42:21;;;;;;;;;14.33;5.00;;;;;;;;5038369;28;45754;-77
2023/05/04 05:44:47;;;;;;;;;4.25;4.25;;;;;;;;5038058;28;45349;-77
2023/05/04 05:47:12;;;;;;;;;4.00;4.00;;;;;;;;5038272;28;45673;-77
2023/05/04 05:49:37;;;;;;;;;7.00;5.00;;;;;;;;5038413;28;45440;-77
2023/05/04 05:52:02;;;;;;;;;6.33;3.00;;;;;;;;5038370;28;45361;-78
2023/05/04 05:54:30;;;;;;;;;7.50;4.00;;;;;;;;5037962;28;45520;-78
2023/05/04 05:56:56;;;;;;;;;6.25;2.50;;;;;;;;5037853;28;45856;-77
2023/05/04 05:59:21;;;;;;;;;2.33;2.33;;;;;;;;5020411;28;45356;-77
2023/05/04 06:01:46;;;;;;;;;7.00;4.00;;;;;;;;5038284;28;45374;-78
2023/05/04 06:04:11;;;;;;;;;4.50;3.00;;;;;;;;5020000;28;47543;-77
2023/05/04 06:06:37;;;;;;;;;8.33;4.67;;;;;;;;5038016;28;45303;-78
2023/05/04 06:09:02;;;;;;;;;5.00;5.00;;;;;;;;5038000;28;45445;-77
2023/05/04 06:11:27;;;;;;;;;4.33;2.00;;;;;;;;5037552;28;45345;-78
2023/05/04 06:13:52;;;;;;;;;4.33;4.00;;;;;;;;5037848;28;45443;-78
2023/05/04 06:16:18;;;;;;;;;2.00;2.00;;;;;;;;5037548;28;45363;-77
2023/05/04 06:18:43;;;;;;;;;4.00;4.00;;;;;;;;5038200;28;45285;-78
2023/05/04 06:21:09;;;;;;;;;4.50;3.00;;;;;;;;5037786;28;45365;-78
2023/05/04 06:23:35;;;;;;;;;10.25;4.00;;;;;;;;5019802;28;47406;-78
2023/05/04 06:26:00;;;;;;;;;8.75;3.00;;;;;;;;5037401;28;45289;-78
2023/05/04 06:28:26;;;;;;;;;5.00;5.00;;;;;;;;5037657;28;45211;-78
2023/05/04 06:30:51;;;;;;;;;3.75;3.00;;;;;;;;5037715;28;45588;-78
2023/05/04 06:33:16;;;;;;;;;4.00;4.00;;;;;;;;5037601;28;45408;-78
2023/05/04 06:35:42;;;;;;;;;7.75;4.75;;;;;;;;5037396;28;45376;-78
2023/05/04 06:38:07;;;;;;;;;6.75;4.00;;;;;;;;5037550;28;45480;-78
2023/05/04 06:40:32;;;;;;;;;6.00;4.67;;;;;;;;5037455;28;45208;-78
2023/05/04 06:42:57;;;;;;;;;7.33;5.00;;;;;;;;5037329;28;45270;-78
2023/05/04 06:45:22;;;;;;;;;9.67;4.33;;;;;;;;5037479;28;45217;-77
2023/05/04 06:47:48;;;;;;;;;4.67;4.67;;;;;;;;5037440;28;45171;-78
2023/05/04 06:50:13;;;;;;;;;4.33;2.67;;;;;;;;5037309;28;45455;-78
2023/05/04 06:52:39;;;;;;;;;3.50;3.25;;;;;;;;5036020;28;45483;-78
2023/05/04 06:55:06;;;;;;;;;5.00;4.25;;;;;;;;5036684;28;45404;-78
2023/05/04 06:57:31;;;;;;;;;5.00;3.25;;;;;;;;5037494;28;45337;-78
2023/05/04 06:59:56;;;;;;;;;3.25;2.00;;;;;;;;5037281;28;45480;-78
2023/05/04 07:02:21;;;;;;;;;6.00;4.00;;;;;;;;5036941;28;46261;-78
2023/05/04 07:04:47;;;;;;;;;6.67;5.00;;;;;;;;5037142;28;45328;-78
2023/05/04 07:07:12;;;;;;;;;6.33;3.67;;;;;;;;5037127;28;45439;-77
2023/05/04 07:09:37;;;;;;;;;6.33;2.67;;;;;;;;5036940;28;45361;-78
2023/05/04 07:12:03;;;;;;;;;5.25;5.00;;;;;;;;5036757;28;45424;-78
2023/05/04 07:14:28;;;;;;;;;4.75;3.00;;;;;;;;5018872;28;45499;-78
2023/05/04 07:16:53;;;;;;;;;5.67;5.33;;;;;;;;5037176;28;45369;-79
2023/05/04 07:19:19;;;;;;;;;3.67;3.00;;;;;;;;5036984;28;45365;-78
2023/05/04 07:21:44;;;;;;;;;4.67;4.00;;;;;;;;5036692;28;45884;-78
2023/05/04 07:24:09;;;;;;;;;4.33;3.33;;;;;;;;5036647;28;45416;-78
2023/05/04 07:26:34;;;;;;;;;4.67;4.67;;;;;;;;5037127;28;45589;-78
2023/05/04 07:28:59;;;;;;;;;6.33;2.00;;;;;;;;5036708;28;45627;-78
2023/05/04 07:31:25;;;;;;;;;4.00;3.00;;;;;;;;5036681;28;46131;-78
2023/05/04 07:33:50;;;;;;;;;5.50;4.00;;;;;;;;5036596;28;45334;-78
2023/05/04 07:36:15;;;;;;;;;6.67;4.00;;;;;;;;5036810;28;45455;-78
2023/05/04 07:38:40;;;;;;;;;4.00;3.67;;;;;;;;5036191;28;45414;-78
2023/05/04 07:41:06;;;;;;;;;4.67;3.00;;;;;;;;5036382;28;46445;-78
2023/05/04 07:43:31;;;;;;;;;2.00;2.00;;;;;;;;5036648;28;45335;-78
2023/05/04 07:45:56;;;;;;;;;5.75;3.00;;;;;;;;5036707;28;45372;-77
2023/05/04 07:48:21;;;;;;;;;4.00;3.67;;;;;;;;5036610;28;45198;-78
2023/05/04 07:50:47;;;;;;;;;4.33;4.33;;;;;;;;5036298;28;45488;-78
2023/05/04 07:53:12;;;;;;;;;5.00;3.00;;;;;;;;5035834;28;45366;-78
2023/05/04 07:55:37;;;;;;;;;7.00;3.67;;;;;;;;5036403;28;45661;-78
2023/05/04 07:58:03;;;;;;;;;4.25;3.50;;;;;;;;5018364;28;45507;-78
2023/05/04 08:00:28;;;;;;;;;4.75;4.50;;;;;;;;5036075;28;45364;-78
2023/05/04 08:02:53;;;;;;;;;6.00;4.00;;;;;;;;5035882;28;45309;-78
2023/05/04 08:05:19;;;;;;;;;5.00;3.00;;;;;;;;5036284;28;45459;-78
2023/05/04 08:07:44;;;;;;;;;6.33;4.00;;;;;;;;5035932;28;45657;-78
2023/05/04 08:10:10;;;;;;;;;7.50;4.00;;;;;;;;5035991;28;45976;-78
2023/05/04 08:12:35;;;;;;;;;3.67;3.00;;;;;;;;5035916;28;45365;-78
2023/05/04 08:15:00;;;;;;;;;4.33;3.00;;;;;;;;5036049;28;45316;-78
2023/05/04 08:17:25;;;;;;;;;6.75;4.00;;;;;;;;5036114;28;45378;-78
2023/05/04 08:19:51;;;;;;;;;4.00;3.25;;;;;;;;5035678;28;46242;-78
2023/05/04 08:22:16;;;;;;;;;6.25;4.00;;;;;;;;5035741;28;45358;-79
2023/05/04 08:24:41;;;;;;;;;5.00;3.67;;;;;;;;5036227;28;45442;-78
2023/05/04 08:27:06;;;;;;;;;6.33;4.00;;;;;;;;5035999;28;45416;-78
2023/05/04 08:29:32;;;;;;;;;5.33;5.00;;;;;;;;5035840;28;45459;-78
2023/05/04 08:31:57;;;;;;;;;6.00;4.00;;;;;;;;5035755;28;45305;-78
2023/05/04 08:34:22;;;;;;;;;3.00;3.00;;;;;;;;5035992;28;45317;-78
2023/05/04 08:36:48;;;;;;;;;6.00;4.00;;;;;;;;5035541;28;45262;-78
2023/05/04 08:39:13;;;;;;;;;4.00;3.67;;;;;;;;5035275;28;46870;-78
2023/05/04 08:41:40;;;;;;;;;8.25;5.25;;;;;;;;5035623;28;45805;-78
2023/05/04 08:44:06;;;;;;;;;4.25;3.25;;;;;;;;5035733;28;45342;-78
2023/05/04 08:46:32;;;;;;;;;3.00;3.00;;;;;;;;5035713;28;45285;-78
2023/05/04 08:48:57;;;;;;;;;5.00;2.75;;;;;;;;5035463;28;45403;-78
2023/05/04 08:51:22;;;;;;;;;3.00;3.00;;;;;;;;5035332;28;45356;-78
2023/05/04 08:53:49;;;;;;;;;6.00;4.67;;;;;;;;5017762;28;45255;-78
2023/05/04 08:56:15;;;;;;;;;4.75;3.25;;;;;;;;5035742;28;45502;-81
2023/05/04 08:58:50;;;;;;;;;5.75;4.00;;;;;;;;5035578;28;45482;-79
2023/05/04 09:01:17;;;;;;;;;4.00;3.00;;;;;;;;5035416;28;45804;-79
2023/05/04 09:03:43;;;;;;;;;8.50;3.50;;;;;;;;5035497;28;45375;-78
2023/05/04 09:06:08;;;;;;;;;4.50;4.00;;;;;;;;5035240;28;45445;-79
2023/05/04 09:08:33;;;;;;;;;4.00;3.25;;;;;;;;5035313;28;46567;-78
2023/05/04 09:10:59;;;;;;;;;4.00;3.00;;;;;;;;5035327;28;45336;-80
2023/05/04 09:13:24;;;;;;;;;7.50;5.25;;;;;;;;5035316;28;45281;-81
2023/05/04 09:15:56;;;;;;;;;2.75;2.75;;;;;;;;5037804;28;45445;-80
2023/05/04 09:18:22;;;;;;;;;3.75;3.75;;;;;;;;5038735;28;45432;-78
2023/05/04 09:20:47;;;;;;;;;4.25;3.00;;;;;;;;5038386;28;45389;-80
2023/05/04 09:23:13;;;;;;;;;4.00;4.00;;;;;;;;5039017;28;45353;-80
2023/05/04 09:25:47;;;;;;;;;4.75;3.00;;;;;;;;5038781;28;45520;-78
2023/05/04 09:28:13;;;;;;;;;4.50;3.25;;;;;;;;5038687;28;46173;-78
2023/05/04 09:30:38;;;;;;;;;5.25;4.25;;;;;;;;5038439;28;45404;-80
2023/05/04 09:33:03;;;;;;;;;4.00;3.33;;;;;;;;5038860;28;45393;-80
2023/05/04 09:35:31;;;;;;;;;5.33;4.00;;;;;;;;5038479;28;45456;-77
2023/05/04 09:37:57;;;;;;;;;5.50;3.50;;;;;;;;5038200;28;45492;-80
2023/05/04 09:40:48;;;;;;;;;2.75;2.25;;;;;;;;5038457;28;45236;-80
2023/05/04 09:43:14;;;;;;;;;4.00;3.00;;;;;;;;5033685;28;45312;-80
2023/05/04 09:45:43;;;;;;;;;4.00;3.75;;;;;;;;5038389;28;45482;-79
2023/05/04 09:48:19;;;;;;;;;6.50;5.25;;;;;;;;5038415;28;46555;-80
2023/05/04 09:50:51;;;;;;;;;4.00;4.00;;;;;;;;5037759;28;45308;-80
2023/05/04 09:53:18;;;;;;;;;7.00;4.00;;;;;;;;5038423;28;45290;-80
2023/05/04 09:55:45;;;;;;;;;5.00;4.75;;;;;;;;5038230;28;45400;-80
2023/05/04 09:58:12;;;;;;;;;4.50;4.50;;;;;;;;5038116;28;46086;-80
2023/05/04 10:00:38;;;;;;;;;3.00;2.50;;;;;;;;5038235;28;45747;-80
2023/05/04 10:03:04;;;;;;;;;4.75;4.00;;;;;;;;5038315;28;45408;-80
2023/05/04 10:05:29;;;;;;;;;3.00;2.25;;;;;;;;5037840;28;45488;-80
2023/05/04 10:07:58;;;;;;;;;7.00;3.00;;;;;;;;5037996;28;45408;-80
2023/05/04 10:10:24;;;;;;;;;6.50;3.50;;;;;;;;5037779;28;45318;-80
2023/05/04 10:12:49;;;;;;;;;7.00;3.75;;;;;;;;5037997;28;45499;-80
2023/05/04 10:15:15;;;;;;;;;6.67;2.00;;;;;;;;5038042;28;45517;-81
2023/05/04 10:18:02;;;;;;;;;6.00;3.25;;;;;;;;5037694;28;45980;-81
2023/05/04 10:20:52;;;;;;;;;3.00;3.00;;;;;;;;5037776;28;45811;-81
2023/05/04 10:23:28;;;;;;;;;4.75;3.75;;;;;;;;5037840;28;45365;-79
2023/05/04 10:25:56;;;;;;;;;5.50;3.75;;;;;;;;5037589;28;45732;-81
2023/05/04 10:29:01;;;;;;;;;3.00;3.00;;;;;;;;5037531;28;46168;-78
2023/05/04 10:31:35;;;;;;;;;3.75;3.75;;;;;;;;4937183;28;45702;-79
2023/05/04 10:34:01;;;;;;;;;3.00;3.00;;;;;;;;4937108;28;45439;-79
2023/05/04 10:36:34;;;;;;;;;2.50;2.50;;;;;;;;4937131;28;45557;-78
2023/05/04 10:38:59;;;;;;;;;3.00;3.00;;;;;;;;4936864;28;46644;-79
2023/05/04 10:41:24;;;;;;;;;3.00;3.00;;;;;;;;4937033;28;45396;-79
2023/05/04 10:44:01;;;;;;;;;3.75;2.25;;;;;;;;4937137;28;45400;-79
2023/05/04 10:46:26;;;;;;;;;8.50;4.50;;;;;;;;4937124;28;45579;-79
2023/05/04 10:48:52;;;;;;;;;3.50;1.75;;;;;;;;4936495;28;46508;-79
2023/05/04 10:51:21;;;;;;;;;4.25;3.00;;;;;;;;4936941;28;45442;-79
2023/05/04 10:53:46;;;;;;;;;3.75;2.75;;;;;;;;4937010;28;45385;-79
2023/05/04 10:56:19;;;;;;;;;4.50;2.50;;;;;;;;4936820;28;45683;-79
2023/05/04 10:58:45;;;;;;;;;3.50;3.00;;;;;;;;4936926;28;46751;-79
2023/05/04 11:01:12;;;;;;;;;4.50;2.00;;;;;;;;4944892;28;45300;-79
2023/05/04 11:03:40;;;;;;;;;2.75;2.00;;;;;;;;5037028;28;45463;-79
2023/05/04 11:06:16;;;;;;;;;5.00;4.00;;;;;;;;5037157;28;45524;-79
2023/05/04 11:08:41;;;;;;;;;3.25;2.25;;;;;;;;5036989;28;47368;-79
2023/05/04 11:11:07;;;;;;;;;3.75;2.00;;;;;;;;5036973;28;45422;-79
2023/05/04 11:13:32;;;;;;;;;5.00;2.67;;;;;;;;5037033;28;45409;-79
2023/05/04 11:15:58;;;;;;;;;3.50;3.50;;;;;;;;5036634;28;45337;-78
2023/05/04 11:18:26;;;;;;;;;6.75;3.00;;;;;;;;5036586;28;46400;-79
2023/05/04 11:20:52;;;;;;;;;2.00;1.75;;;;;;;;5037000;28;45486;-79
2023/05/04 11:23:17;;;;;;;;;1.00;1.00;;;;;;;;5037032;28;45374;-79
2023/05/04 11:25:42;;;;;;;;;2.33;2.33;;;;;;;;5036922;28;45290;-78
2023/05/04 11:28:08;;;;;;;;;4.00;3.00;;;;;;;;5036775;28;46611;-81
2023/05/04 11:30:34;;;;;;;;;5.00;2.25;;;;;;;;5036097;28;45399;-78
2023/05/04 11:32:59;;;;;;;;;6.00;2.25;;;;;;;;5036749;28;45486;-79
2023/05/04 11:35:25;;;;;;;;;2.25;2.00;;;;;;;;5036741;28;45390;-79
2023/05/04 11:37:51;;;;;;;;;3.00;1.75;;;;;;;;5035448;28;46614;-78
2023/05/04 11:40:18;;;;;;;;;2.00;2.00;;;;;;;;5036552;28;45800;-78
2023/05/04 11:42:44;;;;;;;;;2.00;2.00;;;;;;;;5036755;28;45367;-78
2023/05/04 11:45:11;;;;;;;;;4.50;3.00;;;;;;;;5018239;28;45456;-78
2023/05/04 11:47:37;;;;;;;;;2.00;2.00;;;;;;;;5036432;28;47365;-78
2023/05/04 11:50:03;;;;;;;;;4.00;2.25;;;;;;;;5036331;28;45680;-79
2023/05/04 11:52:30;;;;;;;;;3.00;2.00;;;;;;;;5036470;28;45298;-79
2023/05/04 11:54:56;;;;;;;;;2.25;2.25;;;;;;;;5036307;28;45485;-79
2023/05/04 11:57:21;;;;;;;;;3.00;2.75;;;;;;;;5036276;28;45386;-78
2023/05/04 11:59:47;;;;;;;;;5.50;3.00;;;;;;;;5035832;28;45488;-79
2023/05/04 12:02:16;;;;;;;;;3.00;3.00;;;;;;;;5036428;28;45399;-80
2023/05/04 12:04:41;;;;;;;;;6.25;2.25;;;;;;;;5036467;28;45335;-80
2023/05/04 12:07:09;;;;;;;;;2.33;2.00;;;;;;;;5036214;28;45360;-79
2023/05/04 12:09:44;;;;;;;;;1.50;1.25;;;;;;;;5036192;28;45345;-79
2023/05/04 12:12:10;;;;;;;;;5.75;3.00;;;;;;;;5036232;28;45357;-79
2023/05/04 12:14:45;;;;;;;;;4.00;3.33;;;;;;;;5035847;28;45357;-78
2023/05/04 12:17:10;;;;;;;;;3.00;2.00;;;;;;;;5036012;28;45434;-78
2023/05/04 12:19:45;;;;;;;;;3.00;2.00;;;;;;;;5035952;28;45443;-78
2023/05/04 12:22:10;;;;;;;;;2.00;2.00;;;;;;;;5036281;28;45434;-80
2023/05/04 12:24:35;;;;;;;;;4.00;3.00;;;;;;;;5036246;28;45372;-78
2023/05/04 12:27:00;;;;;;;;;6.25;3.25;;;;;;;;5035724;28;46094;-80
2023/05/04 12:29:26;;;;;;;;;3.00;3.00;;;;;;;;5035508;28;45535;-78
2023/05/04 12:31:51;;;;;;;;;3.00;3.00;;;;;;;;5035779;28;45315;-78
2023/05/04 12:34:16;;;;;;;;;4.33;2.00;;;;;;;;5036145;28;45417;-78
2023/05/04 12:36:43;;;;;;;;;3.00;2.00;;;;;;;;5035553;28;46552;-79
2023/05/04 12:39:08;;;;;;;;;1.75;1.50;;;;;;;;5035517;28;45418;-79
2023/05/04 12:41:33;;;;;;;;;1.67;1.67;;;;;;;;5035991;28;45325;-79
2023/05/04 12:43:59;;;;;;;;;2.00;2.00;;;;;;;;5035416;28;45428;-80
2023/05/04 12:46:24;;;;;;;;;6.00;2.50;;;;;;;;5035466;28;46261;-79
2023/05/04 12:48:49;;;;;;;;;3.33;2.33;;;;;;;;5036819;28;45440;-79
2023/05/04 12:51:14;;;;;;;;;3.67;1.67;;;;;;;;5039409;28;45471;-79
2023/05/04 12:53:41;;;;;;;;;3.00;1.25;;;;;;;;5039200;28;45312;-79
2023/05/04 12:56:06;;;;;;;;;2.00;1.00;;;;;;;;5038948;28;46558;-79
2023/05/04 12:58:31;;;;;;;;;2.67;2.00;;;;;;;;5038684;28;45779;-80
2023/05/04 13:00:57;;;;;;;;;2.00;2.00;;;;;;;;5039171;28;45306;-80
2023/05/04 13:03:22;;;;;;;;;0.75;0.75;;;;;;;;5039236;28;45472;-79
2023/05/04 13:05:48;;;;;;;;;4.67;1.33;;;;;;;;5038901;28;47005;-80
2023/05/04 13:08:14;;;;;;;;;1.00;0.25;;;;;;;;5039033;28;45285;-79
2023/05/04 13:10:39;;;;;;;;;1.00;1.00;;;;;;;;5038924;28;45344;-79
2023/05/04 13:13:04;;;;;;;;;5.67;2.00;;;;;;;;5038618;28;45369;-80
2023/05/04 13:15:30;;;;;;;;;2.33;1.00;;;;;;;;5038914;28;46409;-79
2023/05/04 13:17:56;;;;;;;;;3.25;2.25;;;;;;;;5038721;28;45302;-79
2023/05/04 13:20:21;;;;;;;;;2.00;1.00;;;;;;;;5038780;28;45429;-80
2023/05/04 13:22:46;;;;;;;;;3.00;2.00;;;;;;;;5038779;28;45337;-79
2023/05/04 13:25:12;;;;;;;;;1.00;1.00;;;;;;;;5038569;28;47066;-80
2023/05/04 13:27:37;;;;;;;;;4.67;2.00;;;;;;;;5038396;28;45481;-79
2023/05/04 13:30:02;;;;;;;;;3.00;1.00;;;;;;;;5038726;28;45402;-79
2023/05/04 13:32:28;;;;;;;;;2.75;1.75;;;;;;;;5038722;28;45419;-80
2023/05/04 13:34:53;;;;;;;;;2.00;2.00;;;;;;;;5038449;28;47146;-80
2023/05/04 13:37:18;;;;;;;;;3.67;2.00;;;;;;;;5038592;28;45447;-79
2023/05/04 13:39:44;;;;;;;;;2.50;2.00;;;;;;;;5038604;28;45652;-79
2023/05/04 13:42:12;;;;;;;;;1.75;1.75;;;;;;;;5038303;28;45442;-80
2023/05/04 13:44:39;;;;;;;;;4.50;2.25;;;;;;;;5038371;28;45520;-79
2023/05/04 13:47:04;;;;;;;;;2.00;2.00;;;;;;;;5038372;28;45809;-80
2023/05/04 13:49:30;;;;;;;;;3.00;1.25;;;;;;;;5038470;28;45259;-79
2023/05/04 13:51:55;;;;;;;;;5.25;3.50;;;;;;;;5038545;28;45553;-80
2023/05/04 13:54:21;;;;;;;;;3.50;2.50;;;;;;;;5038065;28;45477;-79
2023/05/04 13:56:47;;;;;;;;;5.75;3.50;;;;;;;;5037661;28;45377;-79
2023/05/04 13:59:12;;;;;;;;;3.00;2.00;;;;;;;;5038358;28;45544;-79
2023/05/04 14:01:37;;;;;;;;;3.33;3.00;;;;;;;;5037646;28;45432;-79
2023/05/04 14:04:03;;;;;;;;;2.00;2.00;;;;;;;;5037994;28;47256;-79
2023/05/04 14:06:29;;;;;;;;;4.67;3.00;;;;;;;;5038075;28;45372;-80
2023/05/04 14:08:55;;;;;;;;;6.75;4.75;;;;;;;;5038060;28;45376;-79
2023/05/04 14:11:20;;;;;;;;;4.75;4.00;;;;;;;;5037969;28;45321;-79
2023/05/04 14:13:46;;;;;;;;;4.67;3.00;;;;;;;;5037856;28;45587;-79
2023/05/04 14:16:11;;;;;;;;;3.00;3.00;;;;;;;;5037685;28;45414;-79
2023/05/04 14:18:36;;;;;;;;;4.00;2.00;;;;;;;;5037980;28;45365;-79
2023/05/04 14:21:01;;;;;;;;;3.67;2.67;;;;;;;;5037977;28;45384;-79
2023/05/04 14:23:26;;;;;;;;;3.00;3.00;;;;;;;;5037945;28;45545;-79
2023/05/04 14:25:52;;;;;;;;;3.33;3.33;;;;;;;;5037498;28;45209;-79
2023/05/04 14:28:17;;;;;;;;;5.00;2.25;;;;;;;;5019905;28;45389;-79
2023/05/04 14:30:42;;;;;;;;;3.00;2.25;;;;;;;;5037818;28;45469;-78
2023/05/04 14:33:07;;;;;;;;;5.33;2.00;;;;;;;;5037657;28;45347;-80
2023/05/04 14:35:36;;;;;;;;;2.67;2.67;;;;;;;;5037634;28;46025;-79